Time;durP1;ratioP1;P1;durP2;ratioP2;P2;SDS_P1;SDS_P2;PMS_P1;PMS_P2;Temp;Humidity;BMP_temperature;BMP_pressure;BME280_temperature;BME280_humidity;BME280_pressure;Samples;Min_cycle;Max_cycle;Signal;HPM_P1;HPM_P2
2022/11/26 00:00:52;;;;;;;30.35;5.05;;;;;;;;;;6217141;23;20022;-94
2022/11/26 00:03:18;;;;;;;22.92;5.03;;;;;;;;;;6191535;23;20060;-94
2022/11/26 00:05:45;;;;;;;27.15;5.70;;;;;;;;;;6217282;23;20034;-94
2022/11/26 00:08:32;;;;;;;22.27;5.00;;;;;;;;;;6194039;23;20012;-94
2022/11/26 00:10:58;;;;;;;28.20;5.03;;;;;;;;;;6219073;23;20344;-94
2022/11/26 00:13:26;;;;;;;20.70;5.10;;;;;;;;;;6193059;23;20115;-94
2022/11/26 00:15:52;;;;;;;27.20;4.70;;;;;;;;;;6219019;22;20116;-93
2022/11/26 00:18:19;;;;;;;26.27;5.05;;;;;;;;;;6193664;23;20376;-94
2022/11/26 00:20:45;;;;;;;12.15;4.32;;;;;;;;;;6217785;23;20504;-93
2022/11/26 00:23:17;;;;;;;22.13;5.25;;;;;;;;;;6217458;23;20228;-93
2022/11/26 00:25:45;;;;;;;23.40;5.57;;;;;;;;;;6218321;23;20008;-94
2022/11/26 00:28:22;;;;;;;37.20;5.90;;;;;;;;;;6218484;23;20011;-94
2022/11/26 00:30:48;;;;;;;28.65;5.60;;;;;;;;;;6218043;23;20020;-93
2022/11/26 00:33:14;;;;;;;20.95;4.97;;;;;;;;;;6190516;23;20020;-93
2022/11/26 00:35:40;;;;;;;19.80;4.60;;;;;;;;;;6215841;23;20003;-95
2022/11/26 00:38:10;;;;;;;21.52;5.10;;;;;;;;;;6193835;23;20096;-95
2022/11/26 00:40:36;;;;;;;24.52;4.97;;;;;;;;;;6218758;23;20016;-94
2022/11/26 00:43:02;;;;;;;28.48;5.88;;;;;;;;;;6193036;23;20020;-94
2022/11/26 00:45:30;;;;;;;27.10;5.50;;;;;;;;;;6191799;23;20126;-94
2022/11/26 00:47:56;;;;;;;35.20;5.93;;;;;;;;;;6244382;23;20031;-94
2022/11/26 00:50:23;;;;;;;22.85;4.93;;;;;;;;;;6215139;23;20733;-94
2022/11/26 00:52:51;;;;;;;34.35;5.57;;;;;;;;;;6191260;23;20513;-94
2022/11/26 00:55:37;;;;;;;29.48;6.07;;;;;;;;;;6217704;23;20001;-94
2022/11/26 00:58:03;;;;;;;26.13;5.38;;;;;;;;;;6217714;23;20004;-94
2022/11/26 01:00:32;;;;;;;31.83;5.53;;;;;;;;;;6214203;23;20062;-93
2022/11/26 01:02:58;;;;;;;27.55;6.10;;;;;;;;;;6217341;23;20416;-94
2022/11/26 01:05:32;;;;;;;22.00;5.25;;;;;;;;;;6217863;23;20095;-94
2022/11/26 01:08:02;;;;;;;23.27;5.25;;;;;;;;;;6220163;23;20383;-94
2022/11/26 01:10:29;;;;;;;21.83;6.75;;;;;;;;;;6193844;23;20008;-93
2022/11/26 01:12:56;;;;;;;12.55;5.05;;;;;;;;;;6218582;23;20573;-94
2022/11/26 01:15:23;;;;;;;19.23;4.57;;;;;;;;;;6219579;22;20035;-94
2022/11/26 01:17:50;;;;;;;16.27;5.55;;;;;;;;;;6220560;23;20027;-94
2022/11/26 01:20:21;;;;;;;21.70;4.82;;;;;;;;;;6218695;23;20000;-94
2022/11/26 01:22:52;;;;;;;29.77;5.28;;;;;;;;;;6219158;23;20062;-93
2022/11/26 01:25:18;;;;;;;22.73;5.45;;;;;;;;;;6245140;23;20000;-93
2022/11/26 01:27:44;;;;;;;25.90;5.35;;;;;;;;;;6216216;23;20355;-94
2022/11/26 01:30:18;;;;;;;22.25;5.80;;;;;;;;;;6219470;23;20000;-93
2022/11/26 01:32:44;;;;;;;29.90;5.70;;;;;;;;;;6218081;23;20092;-94
2022/11/26 01:35:10;;;;;;;26.70;6.03;;;;;;;;;;6192983;23;20012;-94
2022/11/26 01:37:36;;;;;;;31.40;5.15;;;;;;;;;;6218421;23;20050;-94
2022/11/26 01:40:03;;;;;;;27.05;4.88;;;;;;;;;;6218462;23;20221;-93
2022/11/26 01:42:29;;;;;;;26.23;5.93;;;;;;;;;;6215744;23;20000;-93
2022/11/26 01:44:55;;;;;;;23.35;5.38;;;;;;;;;;6217745;23;20042;-93
2022/11/26 01:47:24;;;;;;;35.65;6.28;;;;;;;;;;6192655;23;20050;-94
2022/11/26 01:50:09;;;;;;;21.08;4.88;;;;;;;;;;6218936;23;20429;-94
2022/11/26 01:52:35;;;;;;;24.90;5.13;;;;;;;;;;6216653;23;20016;-94
2022/11/26 01:55:01;;;;;;;24.38;6.43;;;;;;;;;;6191541;23;20016;-94
2022/11/26 01:57:29;;;;;;;26.88;6.05;;;;;;;;;;6192407;23;20436;-94
2022/11/26 02:00:00;;;;;;;37.70;5.53;;;;;;;;;;6218203;23;20074;-95
2022/11/26 02:02:27;;;;;;;28.67;6.20;;;;;;;;;;6217194;23;20031;-94
2022/11/26 02:04:53;;;;;;;29.90;6.38;;;;;;;;;;6217165;23;20027;-94
2022/11/26 02:07:19;;;;;;;41.05;6.88;;;;;;;;;;6217301;23;20071;-94
2022/11/26 02:09:46;;;;;;;24.95;6.65;;;;;;;;;;6193289;23;20008;-94
2022/11/26 02:12:12;;;;;;;20.50;6.43;;;;;;;;;;6194024;23;20523;-93
2022/11/26 02:14:42;;;;;;;27.52;6.22;;;;;;;;;;6192068;23;20407;-94
2022/11/26 02:17:27;;;;;;;22.67;6.75;;;;;;;;;;6220947;22;20020;-94
2022/11/26 02:20:12;;;;;;;22.45;5.32;;;;;;;;;;6215543;23;20090;-95
2022/11/26 02:22:57;;;;;;;18.55;6.28;;;;;;;;;;6217531;23;20317;-94
2022/11/26 02:25:23;;;;;;;26.70;6.10;;;;;;;;;;6215592;23;20081;-94
2022/11/26 02:27:49;;;;;;;27.15;5.82;;;;;;;;;;6213841;23;20000;-93
2022/11/26 02:30:16;;;;;;;26.15;5.95;;;;;;;;;;6216477;23;20008;-93
2022/11/26 02:32:42;;;;;;;24.67;5.85;;;;;;;;;;6216168;23;20105;-93
2022/11/26 02:35:27;;;;;;;27.40;6.22;;;;;;;;;;6214200;23;20008;-94
2022/11/26 02:38:02;;;;;;;30.00;6.03;;;;;;;;;;6216512;23;20024;-92
2022/11/26 02:40:28;;;;;;;24.93;5.93;;;;;;;;;;6218902;23;20023;-93
2022/11/26 02:42:54;;;;;;;29.95;6.13;;;;;;;;;;6214314;23;20019;-92
2022/11/26 02:45:23;;;;;;;20.38;6.30;;;;;;;;;;6189302;23;20020;-93
2022/11/26 02:47:52;;;;;;;29.90;6.35;;;;;;;;;;6214955;23;20012;-93
2022/11/26 02:50:30;;;;;;;29.65;5.95;;;;;;;;;;6211200;23;20008;-94
2022/11/26 02:52:57;;;;;;;36.60;7.03;;;;;;;;;;6214501;23;20004;-93
2022/11/26 02:55:25;;;;;;;28.50;6.90;;;;;;;;;;6213811;23;20371;-93
2022/11/26 02:57:51;;;;;;;33.55;6.53;;;;;;;;;;6214395;23;20083;-94
2022/11/26 03:00:18;;;;;;;25.50;6.30;;;;;;;;;;6214867;23;20009;-94
2022/11/26 03:02:44;;;;;;;26.23;6.50;;;;;;;;;;6190403;23;20014;-93
2022/11/26 03:05:12;;;;;;;22.30;5.82;;;;;;;;;;6213934;23;20024;-93
2022/11/26 03:07:45;;;;;;;24.55;6.55;;;;;;;;;;6215193;23;20004;-93
2022/11/26 03:10:12;;;;;;;28.90;6.63;;;;;;;;;;6211321;23;20442;-93
2022/11/26 03:12:38;;;;;;;31.23;6.45;;;;;;;;;;6214735;23;20031;-93
2022/11/26 03:15:05;;;;;;;31.17;6.72;;;;;;;;;;6191255;22;20012;-94
2022/11/26 03:17:37;;;;;;;27.85;6.65;;;;;;;;;;6216064;22;20075;-93
2022/11/26 03:20:04;;;;;;;23.30;6.20;;;;;;;;;;6191002;23;20012;-94
2022/11/26 03:22:30;;;;;;;33.83;6.53;;;;;;;;;;6191340;23;20098;-93
2022/11/26 03:24:56;;;;;;;23.30;5.85;;;;;;;;;;6191998;23;20012;-94
2022/11/26 03:27:22;;;;;;;30.25;6.55;;;;;;;;;;6211447;23;20460;-95
2022/11/26 03:29:48;;;;;;;28.88;7.07;;;;;;;;;;6216884;23;20387;-94
2022/11/26 03:32:14;;;;;;;24.35;6.35;;;;;;;;;;6190442;23;20012;-94
2022/11/26 03:34:41;;;;;;;42.40;7.07;;;;;;;;;;6190466;23;20008;-94
2022/11/26 03:37:07;;;;;;;24.30;6.03;;;;;;;;;;6217281;23;20008;-92
2022/11/26 03:39:33;;;;;;;20.13;6.28;;;;;;;;;;6190183;23;20408;-93
2022/11/26 03:42:00;;;;;;;26.48;6.30;;;;;;;;;;6186546;23;20043;-92
2022/11/26 03:44:26;;;;;;;23.02;5.35;;;;;;;;;;6190528;23;20008;-92
2022/11/26 03:46:52;;;;;;;32.15;6.47;;;;;;;;;;6191819;23;20056;-92
2022/11/26 03:49:18;;;;;;;34.40;6.22;;;;;;;;;;6190469;23;20096;-93
2022/11/26 03:51:44;;;;;;;20.88;5.63;;;;;;;;;;6190841;23;20008;-94
2022/11/26 03:54:10;;;;;;;30.73;6.75;;;;;;;;;;6192684;23;20009;-93
2022/11/26 03:56:36;;;;;;;34.30;6.85;;;;;;;;;;6218346;23;20011;-93
2022/11/26 03:59:02;;;;;;;26.23;6.32;;;;;;;;;;6193074;23;20039;-93
2022/11/26 04:01:28;;;;;;;34.28;7.03;;;;;;;;;;6192747;23;20512;-93
2022/11/26 04:03:54;;;;;;;26.33;6.82;;;;;;;;;;6217068;23;20045;-93
2022/11/26 04:06:20;;;;;;;29.20;6.43;;;;;;;;;;6218255;23;20448;-93
2022/11/26 04:08:46;;;;;;;29.95;6.50;;;;;;;;;;6217461;23;20348;-93
2022/11/26 04:11:12;;;;;;;31.92;6.78;;;;;;;;;;6192170;23;20016;-93
2022/11/26 04:13:38;;;;;;;24.73;6.57;;;;;;;;;;6193634;23;20012;-93
2022/11/26 04:16:04;;;;;;;20.50;6.65;;;;;;;;;;6192541;22;20113;-93
2022/11/26 04:18:30;;;;;;;27.95;6.80;;;;;;;;;;6217482;23;20000;-93
2022/11/26 04:20:56;;;;;;;23.30;6.90;;;;;;;;;;6217886;23;20088;-94
2022/11/26 04:23:22;;;;;;;32.20;6.85;;;;;;;;;;6190818;23;20016;-93
2022/11/26 04:25:49;;;;;;;29.30;6.82;;;;;;;;;;6193962;23;20008;-93
2022/11/26 04:28:15;;;;;;;19.95;6.65;;;;;;;;;;6191939;23;20012;-93
2022/11/26 04:30:41;;;;;;;22.67;6.75;;;;;;;;;;6192642;23;20012;-94
2022/11/26 04:33:07;;;;;;;33.03;7.57;;;;;;;;;;6216003;23;20004;-94
2022/11/26 04:35:33;;;;;;;28.33;7.20;;;;;;;;;;6191628;23;20019;-94
2022/11/26 04:37:59;;;;;;;31.63;7.55;;;;;;;;;;6192564;23;20008;-93
2022/11/26 04:40:25;;;;;;;33.85;6.72;;;;;;;;;;6190023;23;20031;-93
2022/11/26 04:42:51;;;;;;;24.70;7.28;;;;;;;;;;6215866;23;20015;-93
2022/11/26 04:45:17;;;;;;;24.23;6.53;;;;;;;;;;6192447;23;20008;-93
2022/11/26 04:47:44;;;;;;;30.77;7.95;;;;;;;;;;6191713;23;20046;-94
2022/11/26 04:50:10;;;;;;;21.05;6.88;;;;;;;;;;6191903;23;20027;-93
2022/11/26 04:52:36;;;;;;;31.30;8.00;;;;;;;;;;6216653;23;20008;-93
2022/11/26 04:55:02;;;;;;;29.52;6.93;;;;;;;;;;6189322;23;20009;-92
2022/11/26 04:57:28;;;;;;;25.48;6.93;;;;;;;;;;6215883;23;20004;-93
2022/11/26 04:59:55;;;;;;;28.65;7.55;;;;;;;;;;6191087;23;20008;-92
2022/11/26 05:02:21;;;;;;;40.78;7.85;;;;;;;;;;6192776;23;20082;-93
2022/11/26 05:04:47;;;;;;;26.15;7.78;;;;;;;;;;6192495;23;20013;-92
2022/11/26 05:07:13;;;;;;;32.13;6.68;;;;;;;;;;6190187;23;20024;-93
2022/11/26 05:09:42;;;;;;;24.55;6.22;;;;;;;;;;6212506;23;20014;-93
2022/11/26 05:12:10;;;;;;;35.35;6.97;;;;;;;;;;6190071;23;20062;-93
2022/11/26 05:14:36;;;;;;;26.65;7.97;;;;;;;;;;6192623;23;20015;-94
2022/11/26 05:17:08;;;;;;;25.10;8.10;;;;;;;;;;6216002;22;20012;-93
2022/11/26 05:19:34;;;;;;;30.65;7.30;;;;;;;;;;6191910;23;20028;-93
2022/11/26 05:22:00;;;;;;;32.97;8.60;;;;;;;;;;6215635;23;20454;-93
2022/11/26 05:24:26;;;;;;;32.83;7.15;;;;;;;;;;6189878;23;20127;-92
2022/11/26 05:26:53;;;;;;;27.42;7.20;;;;;;;;;;6190736;23;20012;-92
2022/11/26 05:29:19;;;;;;;27.77;7.30;;;;;;;;;;6190342;23;20088;-93
2022/11/26 05:31:45;;;;;;;30.45;7.68;;;;;;;;;;6190824;23;20107;-93
2022/11/26 05:34:11;;;;;;;32.58;8.18;;;;;;;;;;6191044;23;20004;-93
2022/11/26 05:36:37;;;;;;;31.20;8.13;;;;;;;;;;6189839;23;20061;-93
2022/11/26 05:39:03;;;;;;;30.00;7.18;;;;;;;;;;6190236;23;20352;-94
2022/11/26 05:41:29;;;;;;;36.10;7.15;;;;;;;;;;6188552;23;20086;-93
2022/11/26 05:44:04;;;;;;;31.00;7.70;;;;;;;;;;6194072;23;20086;-94
2022/11/26 05:46:30;;;;;;;26.15;7.43;;;;;;;;;;6188407;23;20429;-92
2022/11/26 05:48:56;;;;;;;27.92;7.55;;;;;;;;;;6189588;23;20055;-93
2022/11/26 05:51:22;;;;;;;35.45;8.40;;;;;;;;;;6217145;23;20004;-93
2022/11/26 05:53:48;;;;;;;35.60;8.10;;;;;;;;;;6191210;23;20004;-94
2022/11/26 05:56:14;;;;;;;22.13;7.95;;;;;;;;;;6217838;23;20000;-92
2022/11/26 05:58:42;;;;;;;32.20;7.85;;;;;;;;;;6216989;23;20035;-94
2022/11/26 06:01:09;;;;;;;25.92;7.22;;;;;;;;;;6217787;23;20070;-94
2022/11/26 06:03:35;;;;;;;37.60;8.93;;;;;;;;;;6215781;23;20027;-93
2022/11/26 06:06:01;;;;;;;29.10;7.93;;;;;;;;;;6192866;23;20058;-93
2022/11/26 06:08:27;;;;;;;29.23;8.52;;;;;;;;;;6191618;23;20016;-94
2022/11/26 06:10:53;;;;;;;38.28;8.63;;;;;;;;;;6189868;23;20321;-93
2022/11/26 06:13:19;;;;;;;25.02;7.55;;;;;;;;;;6190188;23;20035;-93
2022/11/26 06:15:59;;;;;;;24.48;7.60;;;;;;;;;;6193193;22;20345;-93
2022/11/26 06:18:25;;;;;;;34.30;8.23;;;;;;;;;;6243836;22;20019;-93
2022/11/26 06:20:51;;;;;;;30.48;7.97;;;;;;;;;;6191503;23;20043;-92
2022/11/26 06:23:17;;;;;;;23.35;7.63;;;;;;;;;;6194451;23;20016;-92
2022/11/26 06:25:43;;;;;;;26.00;7.57;;;;;;;;;;6194743;23;20016;-93
2022/11/26 06:28:10;;;;;;;39.67;9.23;;;;;;;;;;6217790;23;20038;-93
2022/11/26 06:30:36;;;;;;;37.15;9.52;;;;;;;;;;6189972;23;20020;-92
2022/11/26 06:33:02;;;;;;;28.67;8.32;;;;;;;;;;6190273;23;20005;-91
2022/11/26 06:35:28;;;;;;;37.90;9.13;;;;;;;;;;6188944;23;20460;-92
2022/11/26 06:37:54;;;;;;;39.00;9.52;;;;;;;;;;6215163;23;20050;-91
2022/11/26 06:40:20;;;;;;;23.27;8.10;;;;;;;;;;6189563;23;20094;-92
2022/11/26 06:42:50;;;;;;;24.20;8.00;;;;;;;;;;6215432;23;20398;-92
2022/11/26 06:45:16;;;;;;;25.90;8.48;;;;;;;;;;6214745;23;20057;-92
2022/11/26 06:47:43;;;;;;;33.47;8.48;;;;;;;;;;6188758;23;20012;-92
2022/11/26 06:50:09;;;;;;;27.23;8.98;;;;;;;;;;6191226;23;20109;-93
2022/11/26 06:52:35;;;;;;;32.22;8.93;;;;;;;;;;6193162;23;20008;-91
2022/11/26 06:55:01;;;;;;;30.80;8.85;;;;;;;;;;6193846;23;20008;-93
2022/11/26 06:57:27;;;;;;;34.10;7.55;;;;;;;;;;6193507;23;20425;-92
2022/11/26 06:59:53;;;;;;;34.72;10.90;;;;;;;;;;6217914;23;20213;-92
2022/11/26 07:02:19;;;;;;;21.85;8.27;;;;;;;;;;6193704;23;20091;-91
2022/11/26 07:04:45;;;;;;;39.13;9.10;;;;;;;;;;6193970;23;20099;-92
2022/11/26 07:07:11;;;;;;;30.50;8.52;;;;;;;;;;6218686;23;20047;-92
2022/11/26 07:09:38;;;;;;;34.33;9.52;;;;;;;;;;6194138;23;20032;-92
2022/11/26 07:12:08;;;;;;;31.08;8.98;;;;;;;;;;6217746;23;20015;-92
2022/11/26 07:14:34;;;;;;;27.98;9.80;;;;;;;;;;6219426;23;20007;-92
2022/11/26 07:17:00;;;;;;;44.03;9.57;;;;;;;;;;6194419;23;20039;-92
2022/11/26 07:19:26;;;;;;;33.80;9.48;;;;;;;;;;6216187;23;20432;-92
2022/11/26 07:21:53;;;;;;;39.17;9.77;;;;;;;;;;6244007;23;20013;-92
2022/11/26 07:24:19;;;;;;;41.25;9.75;;;;;;;;;;6192997;23;20448;-92
2022/11/26 07:26:51;;;;;;;30.60;9.38;;;;;;;;;;6217230;23;20429;-90
2022/11/26 07:29:17;;;;;;;26.30;9.32;;;;;;;;;;6193151;23;20016;-92
2022/11/26 07:31:46;;;;;;;37.65;8.77;;;;;;;;;;6192079;23;20048;-92
2022/11/26 07:34:12;;;;;;;28.30;9.65;;;;;;;;;;6191185;23;20440;-93
2022/11/26 07:36:41;;;;;;;26.40;8.40;;;;;;;;;;6193096;23;20008;-92
2022/11/26 07:39:08;;;;;;;32.55;8.63;;;;;;;;;;6244441;23;20516;-92
2022/11/26 07:41:34;;;;;;;28.88;9.70;;;;;;;;;;6217933;23;20432;-92
2022/11/26 07:44:00;;;;;;;33.28;8.43;;;;;;;;;;6193129;23;20069;-92
2022/11/26 07:46:26;;;;;;;33.97;9.65;;;;;;;;;;6191476;23;20047;-93
2022/11/26 07:48:54;;;;;;;27.75;7.20;;;;;;;;;;6190322;23;20028;-93
2022/11/26 07:51:21;;;;;;;17.40;5.80;;;;;;;;;;6216650;23;20087;-92
2022/11/26 07:53:48;;;;;;;26.65;8.77;;;;;;;;;;6217498;23;20514;-92
2022/11/26 07:56:14;;;;;;;24.20;7.78;;;;;;;;;;6189970;23;20739;-92
2022/11/26 07:58:40;;;;;;;27.92;9.07;;;;;;;;;;6187969;23;20009;-92
2022/11/26 08:01:07;;;;;;;79.90;11.35;;;;;;;;;;6185536;23;20067;-91
2022/11/26 08:03:36;;;;;;;37.53;8.57;;;;;;;;;;6213865;23;20039;-92
2022/11/26 08:06:04;;;;;;;27.60;8.95;;;;;;;;;;6213539;23;20008;-91
2022/11/26 08:08:30;;;;;;;31.42;10.32;;;;;;;;;;6215464;23;20091;-92
2022/11/26 08:10:56;;;;;;;35.65;8.48;;;;;;;;;;6186628;23;20008;-91
2022/11/26 08:13:22;;;;;;;24.92;9.40;;;;;;;;;;6189481;23;20093;-91
2022/11/26 08:15:48;;;;;;;25.92;9.43;;;;;;;;;;6188471;23;20012;-91
2022/11/26 08:18:21;;;;;;;31.38;9.65;;;;;;;;;;6190046;22;20024;-91
2022/11/26 08:20:57;;;;;;;23.95;9.18;;;;;;;;;;6190290;23;20023;-91
2022/11/26 08:23:24;;;;;;;31.02;9.13;;;;;;;;;;6216960;23;20008;-91
2022/11/26 08:25:51;;;;;;;39.33;8.80;;;;;;;;;;6215504;23;20433;-91
2022/11/26 08:28:17;;;;;;;28.40;8.73;;;;;;;;;;6215811;23;20448;-91
2022/11/26 08:30:43;;;;;;;31.85;8.07;;;;;;;;;;6191167;23;20448;-91
2022/11/26 08:33:09;;;;;;;36.60;7.95;;;;;;;;;;6189085;23;20098;-91
2022/11/26 08:35:36;;;;;;;34.60;7.93;;;;;;;;;;6190453;23;20349;-91
2022/11/26 08:38:02;;;;;;;18.67;7.35;;;;;;;;;;6213282;23;20138;-92
2022/11/26 08:40:28;;;;;;;31.30;8.60;;;;;;;;;;6214677;23;20340;-92
2022/11/26 08:42:55;;;;;;;30.88;8.73;;;;;;;;;;6215475;23;20638;-92
2022/11/26 08:45:21;;;;;;;23.52;8.40;;;;;;;;;;6215244;23;20455;-92
2022/11/26 08:47:47;;;;;;;28.60;9.00;;;;;;;;;;6188695;23;20020;-91
2022/11/26 08:50:14;;;;;;;22.52;8.57;;;;;;;;;;6214433;23;20011;-92
2022/11/26 08:52:40;;;;;;;39.83;8.23;;;;;;;;;;6212536;23;20091;-91
2022/11/26 08:55:07;;;;;;;28.50;8.20;;;;;;;;;;6212475;23;20012;-91
2022/11/26 08:57:33;;;;;;;24.35;7.45;;;;;;;;;;6188455;23;20455;-91
2022/11/26 08:59:59;;;;;;;33.33;8.65;;;;;;;;;;6191005;23;20432;-94
2022/11/26 09:02:25;;;;;;;38.75;9.23;;;;;;;;;;6216876;23;20391;-92
2022/11/26 09:04:51;;;;;;;31.02;7.95;;;;;;;;;;6189233;23;20015;-93
2022/11/26 09:07:18;;;;;;;32.22;8.18;;;;;;;;;;6187272;23;20055;-91
2022/11/26 09:09:44;;;;;;;37.83;8.20;;;;;;;;;;6215761;23;20012;-92
2022/11/26 09:12:10;;;;;;;24.50;8.35;;;;;;;;;;6214143;23;20016;-91
2022/11/26 09:14:38;;;;;;;28.48;9.15;;;;;;;;;;6190962;23;20376;-92
2022/11/26 09:17:05;;;;;;;31.73;9.18;;;;;;;;;;6214850;22;20004;-91
2022/11/26 09:19:31;;;;;;;25.30;8.98;;;;;;;;;;6215330;23;20004;-92
2022/11/26 09:21:57;;;;;;;31.00;8.18;;;;;;;;;;6190216;23;20012;-93
2022/11/26 09:24:23;;;;;;;32.63;7.75;;;;;;;;;;6190679;23;20016;-92
2022/11/26 09:26:50;;;;;;;32.22;7.88;;;;;;;;;;6213321;23;20016;-91
2022/11/26 09:29:17;;;;;;;37.95;9.30;;;;;;;;;;6214235;23;20012;-93
2022/11/26 09:31:50;;;;;;;21.73;9.25;;;;;;;;;;6213916;23;20019;-91
2022/11/26 09:34:17;;;;;;;27.52;7.88;;;;;;;;;;6214237;23;20007;-92
2022/11/26 09:36:43;;;;;;;28.40;8.30;;;;;;;;;;6213117;23;20008;-92
2022/11/26 09:39:11;;;;;;;25.45;8.00;;;;;;;;;;6188826;23;20008;-92
2022/11/26 09:41:40;;;;;;;23.50;6.57;;;;;;;;;;6213991;23;20376;-93
2022/11/26 09:44:12;;;;;;;30.13;8.15;;;;;;;;;;6214903;23;20371;-91
2022/11/26 09:46:38;;;;;;;27.63;5.65;;;;;;;;;;6214319;23;20091;-93
2022/11/26 09:49:05;;;;;;;30.33;7.47;;;;;;;;;;6216299;23;20412;-92
2022/11/26 09:51:33;;;;;;;32.03;7.82;;;;;;;;;;6192895;23;20508;-92
2022/11/26 09:54:00;;;;;;;26.83;8.23;;;;;;;;;;6214746;23;20004;-92
2022/11/26 09:56:27;;;;;;;31.60;7.82;;;;;;;;;;6213386;23;20387;-92
2022/11/26 09:59:00;;;;;;;22.38;7.68;;;;;;;;;;6186220;23;20020;-91
2022/11/26 10:01:27;;;;;;;27.55;7.25;;;;;;;;;;6215519;23;20004;-92
2022/11/26 10:03:53;;;;;;;19.98;7.13;;;;;;;;;;6212435;23;20008;-91
2022/11/26 10:06:34;;;;;;;29.85;6.50;;;;;;;;;;6213538;23;20440;-95
2022/11/26 10:09:19;;;;;;;19.25;6.45;;;;;;;;;;6215609;23;20742;-93
2022/11/26 10:11:46;;;;;;;18.07;4.23;;;;;;;;;;6212959;23;20068;-93
2022/11/26 10:14:25;;;;;;;20.10;5.35;;;;;;;;;;6213244;23;20444;-93
2022/11/26 10:16:51;;;;;;;20.73;5.55;;;;;;;;;;6215420;23;20035;-94
2022/11/26 10:19:26;;;;;;;34.00;8.10;;;;;;;;;;6213644;22;20335;-91
2022/11/26 10:21:54;;;;;;;27.30;6.57;;;;;;;;;;6212293;23;20016;-92
2022/11/26 10:24:29;;;;;;;31.98;7.25;;;;;;;;;;6215995;23;20445;-91
2022/11/26 10:26:55;;;;;;;26.33;8.40;;;;;;;;;;6216067;23;20008;-92
2022/11/26 10:29:22;;;;;;;22.10;7.72;;;;;;;;;;6215257;23;20004;-92
2022/11/26 10:31:48;;;;;;;29.73;7.13;;;;;;;;;;6215328;23;20388;-93
2022/11/26 10:34:25;;;;;;;31.42;8.18;;;;;;;;;;6191476;23;20038;-91
2022/11/26 10:36:51;;;;;;;24.98;7.50;;;;;;;;;;6217860;23;20405;-92
2022/11/26 10:39:19;;;;;;;29.08;7.47;;;;;;;;;;6191456;23;20060;-92
2022/11/26 10:41:46;;;;;;;33.00;8.25;;;;;;;;;;6216288;23;20419;-92
2022/11/26 10:44:32;;;;;;;29.95;8.38;;;;;;;;;;6191570;23;20115;-93
2022/11/26 10:46:59;;;;;;;28.55;8.35;;;;;;;;;;6218425;23;20012;-92
2022/11/26 10:49:29;;;;;;;24.02;8.18;;;;;;;;;;6218459;23;20008;-91
2022/11/26 10:52:00;;;;;;;26.42;8.43;;;;;;;;;;6218020;23;20012;-91
2022/11/26 10:54:36;;;;;;;33.58;7.50;;;;;;;;;;6217265;23;20066;-92
2022/11/26 10:57:11;;;;;;;25.38;7.53;;;;;;;;;;6218548;23;20083;-91
2022/11/26 10:59:43;;;;;;;30.35;8.45;;;;;;;;;;6216871;23;20084;-92
2022/11/26 11:02:40;;;;;;;35.05;9.75;;;;;;;;;;6217136;23;20008;-92
2022/11/26 11:05:08;;;;;;;23.80;8.30;;;;;;;;;;6215824;23;20008;-91
2022/11/26 11:07:35;;;;;;;34.55;9.35;;;;;;;;;;6218791;23;20054;-91
2022/11/26 11:10:12;;;;;;;14.73;5.88;;;;;;;;;;6218583;23;20011;-93
2022/11/26 11:12:39;;;;;;;34.35;9.25;;;;;;;;;;6217610;23;20353;-92
2022/11/26 11:15:18;;;;;;;26.30;7.90;;;;;;;;;;6219099;23;20424;-91
2022/11/26 11:18:06;;;;;;;35.60;9.27;;;;;;;;;;6220252;22;20095;-91
2022/11/26 11:20:37;;;;;;;34.22;9.07;;;;;;;;;;6216545;23;20054;-91
2022/11/26 11:23:06;;;;;;;26.40;7.80;;;;;;;;;;6192691;23;20004;-91
2022/11/26 11:25:33;;;;;;;27.20;9.10;;;;;;;;;;6217649;23;20008;-92
2022/11/26 11:28:05;;;;;;;27.15;10.15;;;;;;;;;;6218764;23;20027;-91
2022/11/26 11:30:34;;;;;;;28.55;8.82;;;;;;;;;;6216079;23;20413;-92
2022/11/26 11:33:11;;;;;;;25.65;9.82;;;;;;;;;;6215127;23;20027;-92
2022/11/26 11:35:37;;;;;;;33.00;10.35;;;;;;;;;;6214670;23;20124;-90
2022/11/26 11:38:03;;;;;;;34.85;7.60;;;;;;;;;;6215957;23;20000;-90
2022/11/26 11:40:32;;;;;;;33.38;10.05;;;;;;;;;;6218007;23;20004;-91
2022/11/26 11:43:02;;;;;;;32.08;10.52;;;;;;;;;;6189758;23;20015;-91
2022/11/26 11:45:41;;;;;;;30.67;10.75;;;;;;;;;;6217047;23;20054;-92
2022/11/26 11:48:07;;;;;;;31.85;5.43;;;;;;;;;;6216164;23;20036;-90
2022/11/26 11:50:36;;;;;;;43.05;10.95;;;;;;;;;;6211301;23;20056;-91
2022/11/26 11:53:02;;;;;;;28.15;10.45;;;;;;;;;;6211478;23;20393;-91
2022/11/26 11:55:32;;;;;;;18.50;8.20;;;;;;;;;;6213112;23;20011;-92
2022/11/26 11:58:16;;;;;;;26.75;9.25;;;;;;;;;;6212662;23;20058;-91
2022/11/26 12:00:59;;;;;;;29.92;9.48;;;;;;;;;;6211867;23;20688;-91
2022/11/26 12:03:33;;;;;;;39.83;10.80;;;;;;;;;;6216372;23;20004;-91
2022/11/26 12:06:21;;;;;;;37.85;10.57;;;;;;;;;;6215202;23;20059;-91
2022/11/26 12:08:56;;;;;;;24.50;9.43;;;;;;;;;;6217430;23;20004;-91
2022/11/26 12:11:22;;;;;;;46.20;9.93;;;;;;;;;;6213241;23;20200;-92
2022/11/26 12:13:56;;;;;;;28.98;10.07;;;;;;;;;;6215892;23;20008;-90
2022/11/26 12:16:24;;;;;;;31.20;10.27;;;;;;;;;;6215904;23;20484;-91
2022/11/26 12:19:00;;;;;;;25.15;8.00;;;;;;;;;;6212751;22;20554;-92
2022/11/26 12:21:30;;;;;;;30.85;9.98;;;;;;;;;;6215085;23;20637;-88
2022/11/26 12:23:59;;;;;;;38.78;10.95;;;;;;;;;;6213338;23;20326;-88
2022/11/26 12:26:44;;;;;;;27.00;9.88;;;;;;;;;;6213569;23;20420;-89
2022/11/26 12:29:39;;;;;;;26.00;9.15;;;;;;;;;;6215766;23;20054;-90
2022/11/26 12:32:10;;;;;;;30.60;10.02;;;;;;;;;;6187482;23;20008;-90
2022/11/26 12:34:51;;;;;;;27.15;9.77;;;;;;;;;;6213345;23;20012;-90
2022/11/26 12:37:17;;;;;;;26.95;9.45;;;;;;;;;;6211984;23;20036;-88
2022/11/26 12:40:05;;;;;;;27.42;8.60;;;;;;;;;;6215826;23;20083;-89
2022/11/26 12:42:44;;;;;;;29.90;8.77;;;;;;;;;;6215796;23;20008;-90
2022/11/26 12:45:27;;;;;;;29.52;10.43;;;;;;;;;;6214790;23;20314;-89
2022/11/26 12:47:58;;;;;;;25.33;7.97;;;;;;;;;;6215892;23;20008;-93
2022/11/26 12:50:31;;;;;;;27.15;9.23;;;;;;;;;;6223829;23;20309;-93
2022/11/26 12:52:57;;;;;;;39.63;9.85;;;;;;;;;;6223864;23;20066;-93
2022/11/26 12:55:42;;;;;;;35.25;9.73;;;;;;;;;;6224750;23;20028;-91
2022/11/26 12:58:21;;;;;;;28.60;10.93;;;;;;;;;;6223215;23;20004;-92
2022/11/26 13:00:51;;;;;;;32.88;9.68;;;;;;;;;;6223364;23;20008;-92
2022/11/26 13:03:17;;;;;;;36.60;11.45;;;;;;;;;;6200128;23;20016;-92
2022/11/26 13:05:50;;;;;;;35.10;10.38;;;;;;;;;;6203639;23;20012;-93
2022/11/26 13:08:34;;;;;;;38.60;9.80;;;;;;;;;;6227014;23;20011;-93
2022/11/26 13:11:07;;;;;;;23.52;8.90;;;;;;;;;;6224705;23;20011;-93
2022/11/26 13:13:38;;;;;;;28.05;9.40;;;;;;;;;;6223848;23;20079;-92
2022/11/26 13:16:36;;;;;;;41.45;11.40;;;;;;;;;;6223423;23;20011;-92
2022/11/26 13:19:10;;;;;;;31.30;9.90;;;;;;;;;;6224743;22;20015;-93
2022/11/26 13:21:46;;;;;;;37.30;11.15;;;;;;;;;;6223363;23;20452;-93
2022/11/26 13:24:12;;;;;;;43.35;10.43;;;;;;;;;;6224205;23;20059;-94
2022/11/26 13:26:41;;;;;;;29.67;10.63;;;;;;;;;;6224708;23;20031;-93
2022/11/26 13:29:07;;;;;;;33.45;11.90;;;;;;;;;;6224717;23;20004;-93
2022/11/26 13:31:33;;;;;;;34.55;11.52;;;;;;;;;;6224310;23;20459;-92
2022/11/26 13:34:06;;;;;;;39.15;11.85;;;;;;;;;;6225074;23;20005;-93
2022/11/26 13:36:38;;;;;;;45.47;12.27;;;;;;;;;;6226123;23;20000;-93
2022/11/26 13:39:12;;;;;;;39.08;12.52;;;;;;;;;;6227083;23;20074;-94
2022/11/26 13:41:38;;;;;;;28.65;10.40;;;;;;;;;;6226705;23;20087;-93
2022/11/26 13:44:23;;;;;;;35.70;12.05;;;;;;;;;;6228906;23;20332;-94
2022/11/26 13:46:59;;;;;;;38.65;12.68;;;;;;;;;;6228865;23;20122;-95
2022/11/26 13:49:48;;;;;;;36.15;12.23;;;;;;;;;;6228405;23;20094;-92
2022/11/26 13:52:16;;;;;;;38.92;13.02;;;;;;;;;;6237775;23;20000;-95
2022/11/26 13:54:52;;;;;;;39.35;11.02;;;;;;;;;;6244095;23;20032;-95
2022/11/26 13:57:23;;;;;;;37.15;12.70;;;;;;;;;;6244495;23;20032;-96
2022/11/26 13:59:51;;;;;;;44.50;13.00;;;;;;;;;;6241707;23;19992;-92
2022/11/26 14:02:32;;;;;;;30.45;12.40;;;;;;;;;;6240300;23;20516;-94
2022/11/26 14:04:59;;;;;;;42.67;11.43;;;;;;;;;;6226456;23;20000;-95
2022/11/26 14:07:25;;;;;;;43.97;13.27;;;;;;;;;;6202807;23;20011;-95
2022/11/26 14:09:53;;;;;;;47.55;14.57;;;;;;;;;;6201968;23;20151;-95
2022/11/26 14:12:23;;;;;;;43.72;12.70;;;;;;;;;;6228961;23;20030;-96
2022/11/26 14:14:50;;;;;;;43.22;13.98;;;;;;;;;;6225988;23;20091;-96
2022/11/26 14:17:20;;;;;;;38.90;10.40;;;;;;;;;;6225320;23;20054;-95
2022/11/26 14:19:57;;;;;;;39.38;12.95;;;;;;;;;;6226418;22;20016;-94
2022/11/26 14:22:36;;;;;;;27.58;12.57;;;;;;;;;;6225352;23;20031;-94
2022/11/26 14:25:04;;;;;;;54.15;14.73;;;;;;;;;;6200589;23;20337;-94
2022/11/26 14:27:34;;;;;;;37.90;12.25;;;;;;;;;;6224810;23;20008;-95
2022/11/26 14:30:06;;;;;;;40.90;11.07;;;;;;;;;;6224799;23;20054;-96
2022/11/26 14:32:39;;;;;;;39.85;12.30;;;;;;;;;;6225419;23;20420;-96
2022/11/26 14:35:34;;;;;;;46.22;13.93;;;;;;;;;;6225203;23;20340;-95
2022/11/26 14:38:01;;;;;;;39.50;14.18;;;;;;;;;;6200458;23;20000;-96
2022/11/26 14:40:29;;;;;;;47.67;13.60;;;;;;;;;;6225994;23;20088;-96